createdAt,value
2018-02-17T00:02:07.595Z,100519.31
2018-02-17T00:04:37.279Z,100489.62
2018-02-17T00:07:07.275Z,100516.55
2018-02-17T00:09:37.400Z,100510.44
2018-02-17T00:12:08.161Z,100504.05
2018-02-17T00:14:38.043Z,100498.28
2018-02-17T00:17:08.369Z,100500.50
2018-02-17T00:19:39.641Z,100502.74
2018-02-17T00:22:10.247Z,100490.75
2018-02-17T00:24:39.839Z,100491.09
2018-02-17T00:27:09.621Z,100495.57
2018-02-17T00:29:40.825Z,100497.73
2018-02-17T00:32:11.014Z,100488.75
2018-02-17T00:34:40.992Z,100500.47
2018-02-17T00:37:11.988Z,100472.16
2018-02-17T00:39:42.238Z,100473.97
2018-02-17T00:42:12.676Z,100505.89
2018-02-17T00:44:42.781Z,100510.05
2018-02-17T00:47:12.664Z,100513.12
2018-02-17T00:49:42.319Z,100520.59
2018-02-17T00:52:13.028Z,100519.17
2018-02-17T00:54:42.587Z,100504.02
2018-02-17T00:57:12.591Z,100506.38
2018-02-17T00:59:42.839Z,100496.09
2018-02-17T01:02:13.593Z,100494.95
2018-02-17T01:04:43.399Z,100494.07
2018-02-17T01:07:13.390Z,100491.02
2018-02-17T01:09:43.874Z,100481.31
2018-02-17T01:12:13.633Z,100489.38
2018-02-17T01:14:43.957Z,100487.61
2018-02-17T01:17:13.806Z,100486.17
2018-02-17T01:19:43.564Z,100485.05
2018-02-17T01:22:13.538Z,100480.90
2018-02-17T01:24:43.240Z,100479.77
2018-02-17T01:27:12.878Z,100473.55
2018-02-17T01:29:42.993Z,100481.58
2018-02-17T01:32:13.169Z,100488.23
2018-02-17T01:34:43.126Z,100494.84
2018-02-17T01:37:13.202Z,100480.88
2018-02-17T01:39:43.378Z,100483.38
2018-02-17T01:42:13.335Z,100489.39
2018-02-17T01:44:43.500Z,100487.22
2018-02-17T01:47:13.166Z,100485.52
2018-02-17T01:49:42.896Z,100484.47
2018-02-17T01:52:14.168Z,100486.36
2018-02-17T01:54:43.940Z,100483.34
2018-02-17T01:57:14.347Z,100479.33
2018-02-17T01:59:44.020Z,100474.86
2018-02-17T02:02:13.780Z,100471.98
2018-02-17T02:04:43.662Z,100466.83
2018-02-17T02:07:14.039Z,100466.98
2018-02-17T02:09:44.259Z,100447.72
2018-02-17T02:12:14.072Z,100447.72
2018-02-17T02:14:44.378Z,100438.61
2018-02-17T02:17:14.497Z,100421.89
2018-02-17T02:19:44.223Z,100442.34
2018-02-17T02:22:14.132Z,100432.20
2018-02-17T02:24:45.042Z,100432.35
2018-02-17T02:27:14.869Z,100446.16
2018-02-17T02:29:44.824Z,100428.73
2018-02-17T02:32:14.985Z,100421.24
2018-02-17T02:34:44.709Z,100457.15
2018-02-17T02:37:14.418Z,100422.34
2018-02-17T02:39:44.706Z,100420.58
2018-02-17T02:42:14.495Z,100406.36
2018-02-17T02:44:44.198Z,100407.25
2018-02-17T02:47:14.965Z,100411.53
2018-02-17T02:49:44.631Z,100407.66
2018-02-17T02:52:14.507Z,100395.98
2018-02-17T02:54:44.659Z,100391.04
2018-02-17T02:57:14.547Z,100383.66
2018-02-17T02:59:44.379Z,100387.94
2018-02-17T03:02:14.162Z,100390.27
2018-02-17T03:04:43.699Z,100398.16
2018-02-17T03:07:13.903Z,100360.16
2018-02-17T03:09:44.959Z,100364.28
2018-02-17T03:12:15.708Z,100348.75
2018-02-17T03:14:45.638Z,100377.59
2018-02-17T03:17:15.197Z,100376.73
2018-02-17T03:19:45.456Z,100374.39
2018-02-17T03:22:16.107Z,100366.33
2018-02-17T03:24:46.769Z,100351.85
2018-02-17T03:27:16.758Z,100373.29
2018-02-17T03:29:46.922Z,100365.17
2018-02-17T03:32:17.684Z,100373.87
2018-02-17T03:34:47.604Z,100379.97
2018-02-17T03:37:17.530Z,100380.92
2018-02-17T03:39:48.161Z,100376.73
2018-02-17T03:42:17.901Z,100372.45
2018-02-17T03:44:47.603Z,100374.58
2018-02-17T03:47:17.800Z,100377.62
2018-02-17T03:49:48.654Z,100362.48
2018-02-17T03:52:18.523Z,100384.92
2018-02-17T03:54:48.585Z,100379.91
2018-02-17T03:57:18.246Z,100364.47
2018-02-17T03:59:48.762Z,100341.09
2018-02-17T04:02:18.784Z,100376.56
2018-02-17T04:04:48.620Z,100364.27
2018-02-17T04:07:18.302Z,100376.62
2018-02-17T04:09:48.296Z,100371.79
2018-02-17T04:12:18.138Z,100375.33
2018-02-17T04:14:48.109Z,100363.09
2018-02-17T04:17:17.973Z,100374.17
2018-02-17T04:19:48.804Z,100378.86
2018-02-17T04:22:18.327Z,100359.21
2018-02-17T04:24:49.105Z,100360.64
2018-02-17T04:27:19.363Z,100368.27
2018-02-17T04:29:49.549Z,100380.44
2018-02-17T04:32:18.956Z,100379.30
2018-02-17T04:34:48.896Z,100364.97
2018-02-17T04:37:18.420Z,100374.66
2018-02-17T04:39:49.422Z,100370.06
2018-02-17T04:42:19.787Z,100358.94
2018-02-17T04:44:49.538Z,100359.82
2018-02-17T04:47:19.323Z,100374.12
2018-02-17T04:49:49.805Z,100355.23
2018-02-17T04:52:19.724Z,100364.38
2018-02-17T04:54:49.692Z,100369.98
2018-02-17T04:57:19.659Z,100349.55
2018-02-17T04:59:49.648Z,100331.28
2018-02-17T05:02:21.003Z,100310.66
2018-02-17T05:04:52.365Z,100315.14
2018-02-17T05:07:22.329Z,100319.09
2018-02-17T05:09:52.155Z,100312.55
2018-02-17T05:12:21.924Z,100297.34
2018-02-17T05:14:52.001Z,100317.61
2018-02-17T05:17:23.042Z,100323.88
2018-02-17T05:19:53.517Z,100322.30
2018-02-17T05:22:23.215Z,100326.05
2018-02-17T05:24:53.049Z,100321.23
2018-02-17T05:27:23.092Z,100317.13
2018-02-17T05:29:53.050Z,100314.31
2018-02-17T05:32:23.129Z,100314.77
2018-02-17T05:34:55.982Z,100294.23
2018-02-17T05:37:25.906Z,100309.88
2018-02-17T05:39:57.616Z,100310.56
2018-02-17T05:42:32.493Z,100308.27
2018-02-17T05:45:02.461Z,100303.57
2018-02-17T05:47:35.920Z,100272.88
2018-02-17T05:50:06.253Z,100290.38
2018-02-17T05:58:33.889Z,100299.77
2018-02-17T06:01:04.654Z,100300.36
2018-02-17T06:03:34.241Z,100269.53
2018-02-17T06:06:04.347Z,100290.88
2018-02-17T06:08:33.889Z,100282.02
2018-02-17T06:11:04.025Z,100287.41
2018-02-17T06:13:33.838Z,100286.25
2018-02-17T06:16:03.563Z,100287.83
2018-02-17T06:18:36.139Z,100192.05
2018-02-17T06:21:06.089Z,100266.11
2018-02-17T06:23:35.796Z,100269.86
2018-02-17T06:26:12.759Z,100269.20
2018-02-17T06:28:47.030Z,100268.31
2018-02-17T06:31:16.739Z,100253.22
2018-02-17T06:33:46.787Z,100251.52
2018-02-17T06:36:16.279Z,100258.37
2018-02-17T06:38:46.573Z,100258.38
2018-02-17T06:41:17.888Z,100247.57
2018-02-17T06:43:49.192Z,100245.67
2018-02-17T06:46:20.099Z,100221.84
2018-02-17T06:48:49.665Z,100222.66
2018-02-17T06:51:20.093Z,100229.26
2018-02-17T06:53:49.993Z,100230.56
2018-02-17T06:56:19.662Z,100214.77
2018-02-17T06:58:49.584Z,100210.50
2018-02-17T07:01:19.610Z,100245.77
2018-02-17T07:03:49.947Z,100218.95
2018-02-17T07:06:19.713Z,100240.22
2018-02-17T07:08:49.434Z,100225.73
2018-02-17T07:11:19.080Z,100242.25
2018-02-17T07:13:48.672Z,100232.94
2018-02-17T07:16:18.468Z,100248.48
2018-02-17T07:18:48.252Z,100250.97
2018-02-17T07:21:18.222Z,100249.59
2018-02-17T07:23:47.968Z,100233.81
2018-02-17T07:26:18.002Z,100254.53
2018-02-17T07:28:47.724Z,100247.39
2018-02-17T07:31:17.900Z,100235.88
2018-02-17T07:33:47.641Z,100228.83
2018-02-17T07:36:17.081Z,100218.16
2018-02-17T07:38:46.945Z,100218.50
2018-02-17T07:41:16.340Z,100233.33
2018-02-17T07:43:45.881Z,100223.51
2018-02-17T07:46:16.430Z,100222.44
2018-02-17T07:48:46.970Z,100213.55
2018-02-17T07:51:18.380Z,100190.36
2018-02-17T07:53:48.604Z,100208.25
2018-02-17T07:56:19.141Z,100188.93
2018-02-17T07:58:49.467Z,100193.50
2018-02-17T08:01:18.860Z,100182.43
2018-02-17T08:03:48.801Z,100176.42
2018-02-17T08:06:20.267Z,100165.41
2018-02-17T08:08:50.829Z,100154.27
2018-02-17T08:11:21.259Z,100158.92
2018-02-17T08:13:56.060Z,100144.08
2018-02-17T08:16:32.937Z,100138.63
2018-02-17T08:19:05.006Z,100128.03
2018-02-17T08:21:34.438Z,100161.45
2018-02-17T08:24:04.203Z,100116.29
2018-02-17T08:26:34.088Z,100152.66
2018-02-17T08:29:04.499Z,100149.37
2018-02-17T08:31:35.622Z,100131.53
2018-02-17T08:34:08.353Z,100136.31
2018-02-17T08:36:40.511Z,100100.87
2018-02-17T08:39:11.129Z,100120.84
2018-02-17T08:41:41.958Z,100141.34
2018-02-17T08:44:12.422Z,100129.59
2018-02-17T08:46:43.077Z,100141.66
2018-02-17T08:49:13.055Z,100132.13
2018-02-17T08:51:45.893Z,100130.58
2018-02-17T08:54:16.588Z,100128.11
2018-02-17T08:56:46.969Z,100116.15
2018-02-17T08:59:18.948Z,100120.02
2018-02-17T09:01:48.995Z,100130.73
2018-02-17T09:04:21.873Z,100135.45
2018-02-17T09:06:52.134Z,100135.26
2018-02-17T09:09:24.896Z,100102.92
2018-02-17T09:11:54.909Z,100148.37
2018-02-17T09:14:24.942Z,100138.68
2018-02-17T09:16:55.175Z,100149.52
2018-02-17T09:19:27.355Z,100153.36
2018-02-17T09:21:57.568Z,100154.10
2018-02-17T09:24:27.096Z,100141.80
2018-02-17T09:26:58.883Z,100152.50
2018-02-17T09:29:33.002Z,100161.49
2018-02-17T09:32:02.478Z,100150.55
2018-02-17T09:34:32.210Z,100164.09
2018-02-17T09:37:02.149Z,100147.22
2018-02-17T09:39:33.614Z,100161.57
2018-02-17T09:42:06.489Z,100154.82
2018-02-17T09:44:37.438Z,100156.88
2018-02-17T09:47:06.954Z,100158.36
2018-02-17T09:49:36.879Z,100133.00
2018-02-17T09:52:07.473Z,100143.98
2018-02-17T09:54:37.880Z,100142.21
2018-02-17T09:57:08.090Z,100141.55
2018-02-17T09:59:38.994Z,100128.21
2018-02-17T10:02:08.678Z,100121.22
2018-02-17T10:04:40.966Z,100123.59
2018-02-17T10:07:11.586Z,100121.63
2018-02-17T10:09:41.118Z,100119.59
2018-02-17T10:12:10.553Z,100123.01
2018-02-17T10:14:40.680Z,100100.89
2018-02-17T10:17:10.847Z,100129.86
2018-02-17T10:19:40.370Z,100129.94
2018-02-17T10:22:11.765Z,100131.38
2018-02-17T10:24:41.794Z,100121.05
2018-02-17T10:27:12.753Z,100121.94
2018-02-17T10:29:42.911Z,100117.14
2018-02-17T10:32:12.350Z,100116.67
2018-02-17T10:34:41.954Z,100111.03
2018-02-17T10:37:11.793Z,100106.57
2018-02-17T10:39:41.474Z,100085.50
2018-02-17T10:42:10.995Z,100097.67
2018-02-17T10:44:40.769Z,100092.34
2018-02-17T10:47:13.063Z,100095.02
2018-02-17T10:49:42.529Z,100100.47
2018-02-17T10:52:14.114Z,100096.34
2018-02-17T10:54:44.482Z,100092.95
2018-02-17T10:57:16.429Z,100096.87
2018-02-17T10:59:46.248Z,100096.23
2018-02-17T11:02:15.774Z,100093.62
2018-02-17T11:04:45.710Z,100087.59
2018-02-17T11:07:15.661Z,100088.73
2018-02-17T11:09:47.829Z,100085.30
2018-02-17T11:12:18.052Z,100087.02
2018-02-17T11:14:48.334Z,100089.45
2018-02-17T11:17:18.187Z,100080.19
2018-02-17T11:19:47.905Z,100071.44
2018-02-17T11:22:17.477Z,100076.89
2018-02-17T11:24:47.734Z,100071.77
2018-02-17T11:27:17.238Z,100082.73
2018-02-17T11:29:47.304Z,100077.44
2018-02-17T11:32:17.068Z,100083.22
2018-02-17T11:34:47.748Z,100076.41
2018-02-17T11:37:19.592Z,100066.53
2018-02-17T11:39:51.218Z,100065.37
2018-02-17T11:42:20.665Z,100062.61
2018-02-17T11:44:50.471Z,100056.14
2018-02-17T11:47:21.922Z,100060.22
2018-02-17T11:49:51.763Z,100068.84
2018-02-17T11:52:21.504Z,100059.61
2018-02-17T11:54:50.914Z,100060.52
2018-02-17T11:57:20.315Z,100049.91
2018-02-17T11:59:50.615Z,100047.03
2018-02-17T12:02:20.538Z,100024.19
2018-02-17T12:04:49.995Z,100040.53
2018-02-17T12:07:20.167Z,100040.25
2018-02-17T12:09:50.661Z,100032.49
2018-02-17T12:12:24.099Z,100032.58
2018-02-17T12:14:54.043Z,100035.88
2018-02-17T12:17:23.722Z,100036.20
2018-02-17T12:19:53.409Z,100037.83
2018-02-17T12:22:23.222Z,100034.94
2018-02-17T12:24:52.960Z,100022.43
2018-02-17T12:27:22.782Z,100035.18
2018-02-17T12:29:52.480Z,100031.98
2018-02-17T12:32:22.371Z,100027.95
2018-02-17T12:34:52.459Z,100017.38
2018-02-17T12:37:21.949Z,100019.13
2018-02-17T12:39:52.314Z,100015.23
2018-02-17T12:42:22.068Z,100012.90
2018-02-17T12:44:52.276Z,100016.25
2018-02-17T12:47:21.770Z,100006.42
2018-02-17T12:49:52.603Z,99997.59
2018-02-17T12:52:25.018Z,100007.01
2018-02-17T12:54:55.614Z,99999.05
2018-02-17T12:57:26.179Z,100005.16
2018-02-17T12:59:57.151Z,100011.31
2018-02-17T13:02:26.700Z,99995.32
2018-02-17T13:04:56.200Z,100008.72
2018-02-17T13:07:25.769Z,100002.56
2018-02-17T13:09:55.779Z,100000.62
2018-02-17T13:12:25.989Z,100002.36
2018-02-17T13:14:55.414Z,100007.42
2018-02-17T13:17:25.129Z,100001.20
2018-02-17T13:19:55.862Z,99997.83
2018-02-17T13:22:25.915Z,100002.47
2018-02-17T13:24:56.863Z,99995.02
2018-02-17T13:27:27.140Z,100000.97
2018-02-17T13:29:56.723Z,99999.06
2018-02-17T13:32:26.621Z,99987.33
2018-02-17T13:34:58.196Z,99995.38
2018-02-17T13:37:28.074Z,100002.55
2018-02-17T13:39:58.497Z,100007.67
2018-02-17T13:42:27.959Z,100004.94
2018-02-17T13:44:57.465Z,100000.91
2018-02-17T13:47:27.817Z,100002.77
2018-02-17T13:49:57.470Z,100003.06
2018-02-17T13:52:27.041Z,100004.69
2018-02-17T13:54:57.706Z,100007.77
2018-02-17T13:57:27.765Z,100005.79
2018-02-17T13:59:57.279Z,99998.73
2018-02-17T14:02:27.079Z,100009.56
2018-02-17T14:04:57.934Z,99990.41
2018-02-17T14:07:27.583Z,99998.31
2018-02-17T14:09:57.834Z,100006.80
2018-02-17T14:12:29.596Z,100000.64
2018-02-17T14:15:00.095Z,99996.11
2018-02-17T14:17:29.682Z,100008.47
2018-02-17T14:19:59.964Z,100018.00
2018-02-17T14:22:29.712Z,100018.25
2018-02-17T14:25:00.460Z,100008.64
2018-02-17T14:27:30.008Z,100021.48
2018-02-17T14:29:59.522Z,100024.00
2018-02-17T14:32:29.360Z,100023.28
2018-02-17T14:34:58.840Z,100031.87
2018-02-17T14:37:29.627Z,100018.36
2018-02-17T14:39:59.190Z,100027.59
2018-02-17T14:42:29.011Z,100017.38
2018-02-17T14:44:59.017Z,100029.80
2018-02-17T14:47:29.416Z,100028.82
2018-02-17T14:49:58.913Z,100031.48
2018-02-17T14:52:28.955Z,100006.41
2018-02-17T14:54:58.701Z,100035.38
2018-02-17T14:57:28.249Z,100041.66
2018-02-17T14:59:58.113Z,100037.98
2018-02-17T15:02:27.558Z,100043.52
2018-02-17T15:04:58.344Z,100041.70
2018-02-17T15:07:29.464Z,100044.02
2018-02-17T15:09:59.593Z,100042.67
2018-02-17T15:12:29.605Z,100049.59
2018-02-17T15:14:59.113Z,100052.47
2018-02-17T15:17:29.825Z,100057.08
2018-02-17T15:19:59.355Z,100045.88
2018-02-17T15:22:29.165Z,100068.86
2018-02-17T15:24:59.033Z,100070.44
2018-02-17T15:27:28.464Z,100067.56
2018-02-17T15:29:57.933Z,100080.18
2018-02-17T15:32:27.521Z,100067.51
2018-02-17T15:34:58.609Z,100075.43
2018-02-17T15:37:29.033Z,100105.21
2018-02-17T15:39:59.529Z,100078.30
2018-02-17T15:42:29.833Z,100086.80
2018-02-17T15:44:59.370Z,100086.03
2018-02-17T15:47:29.276Z,100085.05
2018-02-17T15:49:58.912Z,100093.08
2018-02-17T15:52:28.884Z,100091.88
2018-02-17T15:54:59.177Z,100093.91
2018-02-17T15:57:28.633Z,100091.63
2018-02-17T15:59:59.104Z,100094.64
2018-02-17T16:02:28.935Z,100095.16
2018-02-17T16:04:58.740Z,100097.92
2018-02-17T16:07:28.483Z,100063.24
2018-02-17T16:09:58.251Z,100094.66
2018-02-17T16:12:27.913Z,100091.99
2018-02-17T16:14:57.398Z,100083.86
2018-02-17T16:17:27.202Z,100086.04
2018-02-17T16:19:56.952Z,100079.89
2018-02-17T16:22:27.326Z,100086.80
2018-02-17T16:24:57.198Z,100090.19
2018-02-17T16:27:26.666Z,100091.17
2018-02-17T16:29:57.649Z,100082.47
2018-02-17T16:32:27.264Z,100082.94
2018-02-17T16:34:56.835Z,100093.25
2018-02-17T16:37:26.337Z,100101.37
2018-02-17T16:39:56.092Z,100097.23
2018-02-17T16:42:25.585Z,100119.64
2018-02-17T16:44:55.071Z,100114.86
2018-02-17T16:47:24.893Z,100119.05
2018-02-17T16:49:54.532Z,100124.43
2018-02-17T16:52:24.012Z,100121.58
2018-02-17T16:54:53.797Z,100120.17
2018-02-17T16:57:23.275Z,100130.48
2018-02-17T16:59:52.783Z,100138.13
2018-02-17T17:02:22.719Z,100141.91
2018-02-17T17:04:52.146Z,100144.66
2018-02-17T17:07:21.796Z,100157.19
2018-02-17T17:09:51.688Z,100152.66
2018-02-17T17:12:21.745Z,100151.73
2018-02-17T17:14:52.086Z,100142.78
2018-02-17T17:17:22.992Z,100154.95
2018-02-17T17:19:52.516Z,100156.66
2018-02-17T17:22:22.662Z,100154.73
2018-02-17T17:24:52.346Z,100148.84
2018-02-17T17:27:21.821Z,100168.41
2018-02-17T17:29:52.457Z,100160.19
2018-02-17T17:32:23.450Z,100164.56
2018-02-17T17:34:53.083Z,100159.65
2018-02-17T17:37:26.294Z,100124.84
2018-02-17T17:39:55.896Z,100165.17
2018-02-17T17:42:25.681Z,100170.66
2018-02-17T17:44:56.097Z,100164.69
2018-02-17T17:47:25.543Z,100168.10
2018-02-17T17:49:56.621Z,100145.98
2018-02-17T17:52:26.472Z,100168.19
2018-02-17T17:54:56.009Z,100131.91
2018-02-17T17:57:26.493Z,100187.72
2018-02-17T17:59:55.957Z,100178.68
2018-02-17T18:02:25.427Z,100201.66
2018-02-17T18:04:55.263Z,100198.48
2018-02-17T18:07:24.725Z,100202.45
2018-02-17T18:09:54.165Z,100205.05
2018-02-17T18:12:23.928Z,100213.73
2018-02-17T18:14:53.401Z,100211.80
2018-02-17T18:17:22.883Z,100214.41
2018-02-17T18:19:53.349Z,100220.42
2018-02-17T18:22:22.777Z,100220.34
2018-02-17T18:24:52.272Z,100208.67
2018-02-17T18:27:22.035Z,100220.48
2018-02-17T18:29:51.764Z,100228.47
2018-02-17T18:32:21.709Z,100228.72
2018-02-17T18:34:51.481Z,100235.29
2018-02-17T18:37:20.957Z,100231.73
2018-02-17T18:39:51.334Z,100238.80
2018-02-17T18:42:21.140Z,100255.95
2018-02-17T18:44:50.562Z,100240.95
2018-02-17T18:47:20.090Z,100233.63
2018-02-17T18:49:49.846Z,100240.63
2018-02-17T18:52:19.377Z,100238.56
2018-02-17T18:54:48.818Z,100233.22
2018-02-17T18:57:18.661Z,100230.01
2018-02-17T18:59:48.548Z,100232.96
2018-02-17T19:02:18.010Z,100230.31
2018-02-17T19:04:47.927Z,100215.45
2018-02-17T19:07:17.560Z,100216.31
2018-02-17T19:09:47.099Z,100216.92
2018-02-17T19:12:17.816Z,100217.73
2018-02-17T19:14:47.377Z,100215.35
2018-02-17T19:17:17.509Z,100225.05
2018-02-17T19:19:48.204Z,100226.11
2018-02-17T19:22:18.628Z,100220.75
2018-02-17T19:24:48.381Z,100220.69
2018-02-17T19:27:18.627Z,100215.11
2018-02-17T19:29:48.078Z,100232.50
2018-02-17T19:32:17.577Z,100235.77
2018-02-17T19:34:48.265Z,100231.66
2018-02-17T19:37:17.874Z,100235.29
2018-02-17T19:39:47.334Z,100238.00
2018-02-17T19:42:17.995Z,100237.06
2018-02-17T19:44:47.552Z,100239.11
2018-02-17T19:47:17.054Z,100238.56
2018-02-17T19:49:47.700Z,100229.86
2018-02-17T19:52:17.161Z,100242.77
2018-02-17T19:54:46.732Z,100219.48
2018-02-17T19:57:16.432Z,100242.52
2018-02-17T19:59:45.860Z,100245.23
2018-02-17T20:02:15.857Z,100253.33
2018-02-17T20:04:45.376Z,100256.80
2018-02-17T20:07:15.305Z,100253.13
2018-02-17T20:09:45.228Z,100247.91
2018-02-17T20:12:14.791Z,100255.97
2018-02-17T20:14:44.281Z,100261.18
2018-02-17T20:17:13.916Z,100260.81
2018-02-17T20:19:43.410Z,100264.33
2018-02-17T20:22:13.311Z,100273.00
2018-02-17T20:24:43.153Z,100263.73
2018-02-17T20:27:13.439Z,100275.88
2018-02-17T20:29:42.976Z,100280.44
2018-02-17T20:32:12.714Z,100282.66
2018-02-17T20:34:42.523Z,100290.50
2018-02-17T20:37:12.440Z,100291.08
2018-02-17T20:39:41.898Z,100289.98
2018-02-17T20:42:11.361Z,100298.28
2018-02-17T20:44:41.270Z,100284.09
2018-02-17T20:47:10.720Z,100294.94
2018-02-17T20:49:40.144Z,100303.56
2018-02-17T20:52:09.641Z,100305.95
2018-02-17T20:54:39.156Z,100306.45
2018-02-17T20:57:08.631Z,100308.71
2018-02-17T20:59:38.736Z,100299.67
2018-02-17T21:02:08.842Z,100306.45
2018-02-17T21:04:38.503Z,100318.50
2018-02-17T21:07:08.766Z,100293.70
2018-02-17T21:09:38.339Z,100311.91
2018-02-17T21:12:07.838Z,100325.66
2018-02-17T21:14:38.068Z,100324.64
2018-02-17T21:17:07.497Z,100327.41
2018-02-17T21:19:37.129Z,100325.48
2018-02-17T21:22:06.575Z,100336.78
2018-02-17T21:24:35.974Z,100331.16
2018-02-17T21:27:07.332Z,100330.03
2018-02-17T21:32:05.131Z,100323.75
2018-02-17T21:34:34.940Z,100331.63
2018-02-17T21:37:04.488Z,100345.44
2018-02-17T21:39:33.943Z,100353.18
2018-02-17T21:42:03.649Z,100357.78
2018-02-17T21:44:33.129Z,100358.43
2018-02-17T21:47:02.667Z,100366.31
2018-02-17T21:49:32.443Z,100366.48
2018-02-17T21:52:01.978Z,100375.76
2018-02-17T21:54:31.597Z,100367.91
2018-02-17T21:57:01.059Z,100373.81
2018-02-17T21:59:30.869Z,100364.39
2018-02-17T22:02:00.375Z,100374.89
2018-02-17T22:04:30.229Z,100367.13
2018-02-17T22:07:00.501Z,100373.56
2018-02-17T22:09:30.508Z,100371.98
2018-02-17T22:12:00.320Z,100374.17
2018-02-17T22:14:29.851Z,100363.38
2018-02-17T22:16:59.731Z,100374.40
2018-02-17T22:19:29.209Z,100379.48
2018-02-17T22:21:58.707Z,100374.35
2018-02-17T22:24:28.451Z,100378.50
2018-02-17T22:26:57.879Z,100374.45
2018-02-17T22:29:27.382Z,100381.70
2018-02-17T22:31:57.223Z,100378.23
2018-02-17T22:34:27.318Z,100381.69
2018-02-17T22:36:56.877Z,100368.87
2018-02-17T22:39:27.526Z,100376.20
2018-02-17T22:41:57.849Z,100376.69
2018-02-17T22:44:27.998Z,100388.52
2018-02-17T22:46:58.188Z,100388.39
2018-02-17T22:49:28.657Z,100382.28
2018-02-17T22:51:58.395Z,100385.97
2018-02-17T22:54:28.851Z,100391.64
2018-02-17T22:56:59.500Z,100392.53
2018-02-17T22:59:29.863Z,100398.37
2018-02-17T23:02:01.249Z,100391.39
2018-02-17T23:04:31.110Z,100394.88
2018-02-17T23:07:01.251Z,100380.97
2018-02-17T23:09:31.838Z,100382.50
2018-02-17T23:12:01.745Z,100400.41
2018-02-17T23:14:31.385Z,100411.92
2018-02-17T23:17:00.866Z,100408.09
2018-02-17T23:19:30.844Z,100409.45
2018-02-17T23:22:01.698Z,100410.29
2018-02-17T23:24:32.145Z,100413.20
2018-02-17T23:27:02.531Z,100412.48
2018-02-17T23:29:31.995Z,100412.33
2018-02-17T23:32:01.868Z,100412.33
2018-02-17T23:34:32.108Z,100413.11
2018-02-17T23:37:01.707Z,100414.58
2018-02-17T23:39:31.640Z,100407.00
2018-02-17T23:42:01.139Z,100412.60
2018-02-17T23:44:30.687Z,100418.48
2018-02-17T23:47:00.917Z,100417.55
2018-02-17T23:49:30.476Z,100424.88
2018-02-17T23:52:00.116Z,100419.61
2018-02-17T23:54:30.081Z,100417.20
2018-02-17T23:57:00.913Z,100422.12
2018-02-17T23:59:30.950Z,100434.16
